sensor_id;sensor_type;location;lat;lon;timestamp;P1;durP1;ratioP1;P2;durP2;ratioP2
56307;SDS011;42217;50.422;7.210;2022-08-20T00:01:43;1.73;;;1.15;;
56307;SDS011;42217;50.422;7.210;2022-08-20T00:04:10;1.40;;;1.00;;
56307;SDS011;42217;50.422;7.210;2022-08-20T00:06:35;1.67;;;1.33;;
56307;SDS011;42217;50.422;7.210;2022-08-20T00:09:01;3.38;;;1.27;;
56307;SDS011;42217;50.422;7.210;2022-08-20T00:11:28;3.30;;;1.58;;
56307;SDS011;42217;50.422;7.210;2022-08-20T00:13:55;1.48;;;1.13;;
56307;SDS011;42217;50.422;7.210;2022-08-20T00:16:24;2.10;;;1.17;;
56307;SDS011;42217;50.422;7.210;2022-08-20T00:18:53;2.85;;;1.75;;
56307;SDS011;42217;50.422;7.210;2022-08-20T00:21:19;2.40;;;1.50;;
56307;SDS011;42217;50.422;7.210;2022-08-20T00:23:46;2.35;;;1.63;;
56307;SDS011;42217;50.422;7.210;2022-08-20T00:26:15;5.03;;;2.03;;
56307;SDS011;42217;50.422;7.210;2022-08-20T00:28:41;3.47;;;1.80;;
56307;SDS011;42217;50.422;7.210;2022-08-20T00:31:08;2.42;;;1.83;;
56307;SDS011;42217;50.422;7.210;2022-08-20T00:33:35;5.05;;;1.52;;
56307;SDS011;42217;50.422;7.210;2022-08-20T00:36:02;3.40;;;1.45;;
56307;SDS011;42217;50.422;7.210;2022-08-20T00:38:37;3.22;;;1.88;;
56307;SDS011;42217;50.422;7.210;2022-08-20T00:41:05;3.85;;;2.17;;
56307;SDS011;42217;50.422;7.210;2022-08-20T00:46:08;2.47;;;1.90;;
56307;SDS011;42217;50.422;7.210;2022-08-20T00:48:35;4.65;;;2.30;;
56307;SDS011;42217;50.422;7.210;2022-08-20T00:51:10;4.90;;;2.35;;
56307;SDS011;42217;50.422;7.210;2022-08-20T00:53:41;3.25;;;2.17;;
56307;SDS011;42217;50.422;7.210;2022-08-20T00:56:08;4.85;;;2.90;;
56307;SDS011;42217;50.422;7.210;2022-08-20T00:58:36;3.65;;;2.42;;
56307;SDS011;42217;50.422;7.210;2022-08-20T01:01:04;3.97;;;2.28;;
56307;SDS011;42217;50.422;7.210;2022-08-20T01:03:31;3.72;;;2.30;;
56307;SDS011;42217;50.422;7.210;2022-08-20T01:05:58;3.83;;;2.63;;
56307;SDS011;42217;50.422;7.210;2022-08-20T01:08:24;4.45;;;2.63;;
56307;SDS011;42217;50.422;7.210;2022-08-20T01:10:51;3.30;;;2.85;;
56307;SDS011;42217;50.422;7.210;2022-08-20T01:13:30;2.65;;;2.45;;
56307;SDS011;42217;50.422;7.210;2022-08-20T01:15:55;3.40;;;2.42;;
56307;SDS011;42217;50.422;7.210;2022-08-20T01:18:24;3.90;;;2.28;;
56307;SDS011;42217;50.422;7.210;2022-08-20T01:20:53;3.05;;;2.72;;
56307;SDS011;42217;50.422;7.210;2022-08-20T01:23:31;3.15;;;2.83;;
56307;SDS011;42217;50.422;7.210;2022-08-20T01:31:29;1.65;;;1.55;;
56307;SDS011;42217;50.422;7.210;2022-08-20T01:33:59;2.17;;;1.67;;
56307;SDS011;42217;50.422;7.210;2022-08-20T01:36:37;1.75;;;1.35;;
56307;SDS011;42217;50.422;7.210;2022-08-20T01:39:09;1.73;;;1.40;;
56307;SDS011;42217;50.422;7.210;2022-08-20T01:44:08;1.83;;;1.63;;
56307;SDS011;42217;50.422;7.210;2022-08-20T01:46:38;1.92;;;1.50;;
56307;SDS011;42217;50.422;7.210;2022-08-20T01:49:40;1.35;;;1.25;;
56307;SDS011;42217;50.422;7.210;2022-08-20T01:52:00;1.75;;;1.42;;
56307;SDS011;42217;50.422;7.210;2022-08-20T01:54:29;2.30;;;1.70;;
56307;SDS011;42217;50.422;7.210;2022-08-20T01:59:53;2.08;;;1.88;;
56307;SDS011;42217;50.422;7.210;2022-08-20T02:02:19;1.30;;;1.20;;
56307;SDS011;42217;50.422;7.210;2022-08-20T02:04:45;2.85;;;2.10;;
56307;SDS011;42217;50.422;7.210;2022-08-20T02:07:12;1.23;;;1.13;;
56307;SDS011;42217;50.422;7.210;2022-08-20T02:09:41;1.38;;;1.27;;
56307;SDS011;42217;50.422;7.210;2022-08-20T02:12:07;1.65;;;1.55;;
56307;SDS011;42217;50.422;7.210;2022-08-20T02:14:34;2.45;;;1.10;;
56307;SDS011;42217;50.422;7.210;2022-08-20T02:17:04;1.50;;;1.30;;
56307;SDS011;42217;50.422;7.210;2022-08-20T02:19:38;1.67;;;1.40;;
56307;SDS011;42217;50.422;7.210;2022-08-20T02:22:43;1.63;;;1.15;;
56307;SDS011;42217;50.422;7.210;2022-08-20T02:25:05;3.47;;;1.58;;
56307;SDS011;42217;50.422;7.210;2022-08-20T02:27:32;1.40;;;1.30;;
56307;SDS011;42217;50.422;7.210;2022-08-20T02:29:59;1.58;;;1.45;;
56307;SDS011;42217;50.422;7.210;2022-08-20T02:32:25;3.88;;;1.92;;
56307;SDS011;42217;50.422;7.210;2022-08-20T02:34:51;2.33;;;2.13;;
56307;SDS011;42217;50.422;7.210;2022-08-20T02:37:17;3.05;;;2.85;;
56307;SDS011;42217;50.422;7.210;2022-08-20T02:39:44;2.22;;;2.00;;
56307;SDS011;42217;50.422;7.210;2022-08-20T02:42:10;2.47;;;2.28;;
56307;SDS011;42217;50.422;7.210;2022-08-20T02:44:37;2.70;;;2.33;;
56307;SDS011;42217;50.422;7.210;2022-08-20T02:47:04;4.18;;;2.75;;
56307;SDS011;42217;50.422;7.210;2022-08-20T02:49:31;5.55;;;3.38;;
56307;SDS011;42217;50.422;7.210;2022-08-20T02:51:57;3.47;;;3.17;;
56307;SDS011;42217;50.422;7.210;2022-08-20T02:54:23;4.60;;;3.70;;
56307;SDS011;42217;50.422;7.210;2022-08-20T02:56:49;4.22;;;3.03;;
56307;SDS011;42217;50.422;7.210;2022-08-20T02:59:16;3.83;;;3.53;;
56307;SDS011;42217;50.422;7.210;2022-08-20T03:01:42;3.10;;;2.88;;
56307;SDS011;42217;50.422;7.210;2022-08-20T03:04:08;5.57;;;4.20;;
56307;SDS011;42217;50.422;7.210;2022-08-20T03:06:34;3.38;;;3.08;;
56307;SDS011;42217;50.422;7.210;2022-08-20T03:09:00;4.72;;;3.90;;
56307;SDS011;42217;50.422;7.210;2022-08-20T03:11:28;7.13;;;4.13;;
56307;SDS011;42217;50.422;7.210;2022-08-20T03:13:56;4.28;;;3.85;;
56307;SDS011;42217;50.422;7.210;2022-08-20T03:16:22;4.45;;;4.05;;
56307;SDS011;42217;50.422;7.210;2022-08-20T03:18:48;4.82;;;3.92;;
56307;SDS011;42217;50.422;7.210;2022-08-20T03:21:13;4.70;;;4.00;;
56307;SDS011;42217;50.422;7.210;2022-08-20T03:23:39;4.13;;;3.65;;
56307;SDS011;42217;50.422;7.210;2022-08-20T03:26:06;4.40;;;4.03;;
56307;SDS011;42217;50.422;7.210;2022-08-20T03:28:33;5.65;;;5.15;;
56307;SDS011;42217;50.422;7.210;2022-08-20T03:30:59;4.40;;;3.97;;
56307;SDS011;42217;50.422;7.210;2022-08-20T03:33:26;4.53;;;4.13;;
56307;SDS011;42217;50.422;7.210;2022-08-20T03:35:52;6.35;;;4.32;;
56307;SDS011;42217;50.422;7.210;2022-08-20T03:38:20;7.05;;;4.53;;
56307;SDS011;42217;50.422;7.210;2022-08-20T03:40:47;6.10;;;5.03;;
56307;SDS011;42217;50.422;7.210;2022-08-20T03:43:14;5.75;;;4.68;;
56307;SDS011;42217;50.422;7.210;2022-08-20T03:45:41;6.50;;;4.97;;
56307;SDS011;42217;50.422;7.210;2022-08-20T03:48:09;6.05;;;5.43;;
56307;SDS011;42217;50.422;7.210;2022-08-20T03:50:37;5.75;;;5.15;;
56307;SDS011;42217;50.422;7.210;2022-08-20T03:53:07;8.73;;;5.68;;
56307;SDS011;42217;50.422;7.210;2022-08-20T03:55:34;6.80;;;6.00;;
56307;SDS011;42217;50.422;7.210;2022-08-20T03:58:01;6.85;;;4.72;;
56307;SDS011;42217;50.422;7.210;2022-08-20T04:00:41;7.60;;;5.07;;
56307;SDS011;42217;50.422;7.210;2022-08-20T04:03:09;5.80;;;4.60;;
56307;SDS011;42217;50.422;7.210;2022-08-20T04:05:36;4.75;;;4.35;;
56307;SDS011;42217;50.422;7.210;2022-08-20T04:08:05;6.40;;;4.60;;
56307;SDS011;42217;50.422;7.210;2022-08-20T04:10:33;5.25;;;4.72;;
56307;SDS011;42217;50.422;7.210;2022-08-20T04:12:59;6.10;;;4.90;;
56307;SDS011;42217;50.422;7.210;2022-08-20T04:15:25;4.47;;;4.07;;
56307;SDS011;42217;50.422;7.210;2022-08-20T04:17:51;5.07;;;4.63;;
56307;SDS011;42217;50.422;7.210;2022-08-20T04:20:21;5.20;;;4.70;;
56307;SDS011;42217;50.422;7.210;2022-08-20T04:22:50;6.90;;;5.35;;
56307;SDS011;42217;50.422;7.210;2022-08-20T04:25:17;6.50;;;5.78;;
56307;SDS011;42217;50.422;7.210;2022-08-20T04:27:45;5.65;;;5.10;;
56307;SDS011;42217;50.422;7.210;2022-08-20T04:30:14;4.45;;;4.03;;
56307;SDS011;42217;50.422;7.210;2022-08-20T04:32:43;3.45;;;2.95;;
56307;SDS011;42217;50.422;7.210;2022-08-20T04:35:10;3.15;;;2.53;;
56307;SDS011;42217;50.422;7.210;2022-08-20T04:37:39;3.65;;;3.25;;
56307;SDS011;42217;50.422;7.210;2022-08-20T04:40:06;3.50;;;3.20;;
56307;SDS011;42217;50.422;7.210;2022-08-20T04:42:52;5.15;;;3.10;;
56307;SDS011;42217;50.422;7.210;2022-08-20T04:45:18;4.53;;;4.10;;
56307;SDS011;42217;50.422;7.210;2022-08-20T04:47:46;3.95;;;3.60;;
56307;SDS011;42217;50.422;7.210;2022-08-20T04:50:12;3.83;;;3.45;;
56307;SDS011;42217;50.422;7.210;2022-08-20T04:52:38;10.18;;;5.40;;
56307;SDS011;42217;50.422;7.210;2022-08-20T04:55:04;8.25;;;5.45;;
56307;SDS011;42217;50.422;7.210;2022-08-20T04:57:31;7.65;;;5.50;;
56307;SDS011;42217;50.422;7.210;2022-08-20T04:59:58;4.45;;;4.07;;
56307;SDS011;42217;50.422;7.210;2022-08-20T05:02:24;11.57;;;5.97;;
56307;SDS011;42217;50.422;7.210;2022-08-20T05:04:50;7.60;;;5.20;;
56307;SDS011;42217;50.422;7.210;2022-08-20T05:07:16;9.27;;;4.97;;
56307;SDS011;42217;50.422;7.210;2022-08-20T05:09:45;6.10;;;4.43;;
56307;SDS011;42217;50.422;7.210;2022-08-20T05:12:11;6.72;;;4.82;;
56307;SDS011;42217;50.422;7.210;2022-08-20T05:14:39;4.45;;;4.00;;
56307;SDS011;42217;50.422;7.210;2022-08-20T05:17:06;4.40;;;3.17;;
56307;SDS011;42217;50.422;7.210;2022-08-20T05:19:33;5.35;;;4.85;;
56307;SDS011;42217;50.422;7.210;2022-08-20T05:22:04;6.43;;;5.15;;
56307;SDS011;42217;50.422;7.210;2022-08-20T05:24:30;9.15;;;5.13;;
56307;SDS011;42217;50.422;7.210;2022-08-20T05:26:57;4.00;;;3.60;;
56307;SDS011;42217;50.422;7.210;2022-08-20T05:29:24;4.07;;;3.67;;
56307;SDS011;42217;50.422;7.210;2022-08-20T05:31:51;4.35;;;3.88;;
56307;SDS011;42217;50.422;7.210;2022-08-20T05:34:16;4.43;;;2.83;;
56307;SDS011;42217;50.422;7.210;2022-08-20T05:36:43;6.43;;;3.45;;
56307;SDS011;42217;50.422;7.210;2022-08-20T05:39:11;4.88;;;3.72;;
56307;SDS011;42217;50.422;7.210;2022-08-20T05:41:37;3.70;;;3.40;;
56307;SDS011;42217;50.422;7.210;2022-08-20T05:44:04;3.60;;;2.05;;
56307;SDS011;42217;50.422;7.210;2022-08-20T05:46:37;5.80;;;2.17;;
56307;SDS011;42217;50.422;7.210;2022-08-20T05:49:07;1.98;;;1.75;;
56307;SDS011;42217;50.422;7.210;2022-08-20T05:51:34;2.35;;;1.90;;
56307;SDS011;42217;50.422;7.210;2022-08-20T05:54:01;2.53;;;2.10;;
56307;SDS011;42217;50.422;7.210;2022-08-20T05:56:28;2.63;;;2.05;;
56307;SDS011;42217;50.422;7.210;2022-08-20T05:58:54;6.68;;;2.97;;
56307;SDS011;42217;50.422;7.210;2022-08-20T06:01:20;2.65;;;2.30;;
56307;SDS011;42217;50.422;7.210;2022-08-20T06:03:46;2.42;;;1.80;;
56307;SDS011;42217;50.422;7.210;2022-08-20T06:06:41;2.08;;;1.85;;
56307;SDS011;42217;50.422;7.210;2022-08-20T06:09:07;3.38;;;2.20;;
56307;SDS011;42217;50.422;7.210;2022-08-20T06:11:33;2.60;;;1.70;;
56307;SDS011;42217;50.422;7.210;2022-08-20T06:13:58;4.03;;;2.67;;
56307;SDS011;42217;50.422;7.210;2022-08-20T06:16:25;4.85;;;2.53;;
56307;SDS011;42217;50.422;7.210;2022-08-20T06:18:50;3.35;;;2.35;;
56307;SDS011;42217;50.422;7.210;2022-08-20T06:21:16;2.45;;;2.10;;
56307;SDS011;42217;50.422;7.210;2022-08-20T06:23:42;5.32;;;2.10;;
56307;SDS011;42217;50.422;7.210;2022-08-20T06:26:07;2.38;;;2.17;;
56307;SDS011;42217;50.422;7.210;2022-08-20T06:28:34;2.55;;;1.90;;
56307;SDS011;42217;50.422;7.210;2022-08-20T06:31:00;2.63;;;1.70;;
56307;SDS011;42217;50.422;7.210;2022-08-20T06:33:27;1.52;;;1.42;;
56307;SDS011;42217;50.422;7.210;2022-08-20T06:35:52;4.38;;;1.85;;
56307;SDS011;42217;50.422;7.210;2022-08-20T06:38:19;3.80;;;1.75;;
56307;SDS011;42217;50.422;7.210;2022-08-20T06:40:45;2.78;;;1.58;;
56307;SDS011;42217;50.422;7.210;2022-08-20T06:43:11;1.70;;;1.52;;
56307;SDS011;42217;50.422;7.210;2022-08-20T06:45:38;1.10;;;1.00;;
56307;SDS011;42217;50.422;7.210;2022-08-20T06:48:08;1.50;;;1.23;;
56307;SDS011;42217;50.422;7.210;2022-08-20T06:50:37;1.98;;;1.10;;
56307;SDS011;42217;50.422;7.210;2022-08-20T06:53:05;1.67;;;1.48;;
56307;SDS011;42217;50.422;7.210;2022-08-20T06:55:32;1.80;;;1.00;;
56307;SDS011;42217;50.422;7.210;2022-08-20T06:57:59;2.28;;;0.82;;
56307;SDS011;42217;50.422;7.210;2022-08-20T07:00:28;2.97;;;1.27;;
56307;SDS011;42217;50.422;7.210;2022-08-20T07:02:56;3.17;;;1.33;;
56307;SDS011;42217;50.422;7.210;2022-08-20T07:05:24;1.20;;;0.98;;
56307;SDS011;42217;50.422;7.210;2022-08-20T07:07:54;1.00;;;0.90;;
56307;SDS011;42217;50.422;7.210;2022-08-20T07:10:21;1.75;;;1.20;;
56307;SDS011;42217;50.422;7.210;2022-08-20T07:12:49;2.83;;;1.50;;
56307;SDS011;42217;50.422;7.210;2022-08-20T07:15:16;3.63;;;1.73;;
56307;SDS011;42217;50.422;7.210;2022-08-20T07:17:47;2.53;;;2.33;;
56307;SDS011;42217;50.422;7.210;2022-08-20T07:20:14;1.90;;;1.35;;
56307;SDS011;42217;50.422;7.210;2022-08-20T07:22:41;1.25;;;1.00;;
56307;SDS011;42217;50.422;7.210;2022-08-20T07:25:08;2.92;;;0.85;;
56307;SDS011;42217;50.422;7.210;2022-08-20T07:27:35;3.58;;;1.20;;
56307;SDS011;42217;50.422;7.210;2022-08-20T07:30:01;1.80;;;1.33;;
56307;SDS011;42217;50.422;7.210;2022-08-20T07:32:48;2.75;;;1.52;;
56307;SDS011;42217;50.422;7.210;2022-08-20T07:35:14;5.18;;;1.67;;
56307;SDS011;42217;50.422;7.210;2022-08-20T07:37:42;2.75;;;1.27;;
56307;SDS011;42217;50.422;7.210;2022-08-20T07:40:12;2.35;;;1.48;;
56307;SDS011;42217;50.422;7.210;2022-08-20T07:42:40;2.67;;;1.00;;
56307;SDS011;42217;50.422;7.210;2022-08-20T07:45:07;2.63;;;1.40;;
56307;SDS011;42217;50.422;7.210;2022-08-20T07:47:35;1.33;;;1.00;;
56307;SDS011;42217;50.422;7.210;2022-08-20T07:50:06;0.82;;;0.73;;
56307;SDS011;42217;50.422;7.210;2022-08-20T07:52:33;1.33;;;0.75;;
56307;SDS011;42217;50.422;7.210;2022-08-20T07:55:09;1.20;;;1.10;;
56307;SDS011;42217;50.422;7.210;2022-08-20T07:57:37;1.30;;;0.95;;
56307;SDS011;42217;50.422;7.210;2022-08-20T08:00:04;1.20;;;1.10;;
56307;SDS011;42217;50.422;7.210;2022-08-20T08:02:32;2.65;;;0.82;;
56307;SDS011;42217;50.422;7.210;2022-08-20T08:04:58;1.27;;;0.82;;
56307;SDS011;42217;50.422;7.210;2022-08-20T08:07:23;2.15;;;0.95;;
56307;SDS011;42217;50.422;7.210;2022-08-20T08:09:50;2.28;;;1.77;;
56307;SDS011;42217;50.422;7.210;2022-08-20T08:12:17;3.40;;;2.75;;
56307;SDS011;42217;50.422;7.210;2022-08-20T08:14:43;2.72;;;1.10;;
56307;SDS011;42217;50.422;7.210;2022-08-20T08:17:11;1.08;;;0.90;;
56307;SDS011;42217;50.422;7.210;2022-08-20T08:19:39;1.00;;;0.75;;
56307;SDS011;42217;50.422;7.210;2022-08-20T08:22:09;2.50;;;0.88;;
56307;SDS011;42217;50.422;7.210;2022-08-20T08:24:38;0.93;;;0.77;;
56307;SDS011;42217;50.422;7.210;2022-08-20T08:27:05;2.00;;;0.60;;
56307;SDS011;42217;50.422;7.210;2022-08-20T08:29:32;0.77;;;0.63;;
56307;SDS011;42217;50.422;7.210;2022-08-20T08:32:00;1.85;;;0.80;;
56307;SDS011;42217;50.422;7.210;2022-08-20T08:34:26;0.60;;;0.57;;
56307;SDS011;42217;50.422;7.210;2022-08-20T08:36:53;1.65;;;0.82;;
56307;SDS011;42217;50.422;7.210;2022-08-20T08:39:19;0.90;;;0.57;;
56307;SDS011;42217;50.422;7.210;2022-08-20T08:41:46;0.60;;;0.50;;
56307;SDS011;42217;50.422;7.210;2022-08-20T08:44:18;0.98;;;0.68;;
56307;SDS011;42217;50.422;7.210;2022-08-20T08:46:50;5.30;;;1.10;;
56307;SDS011;42217;50.422;7.210;2022-08-20T08:49:25;1.38;;;0.88;;
56307;SDS011;42217;50.422;7.210;2022-08-20T08:52:01;3.70;;;0.80;;
56307;SDS011;42217;50.422;7.210;2022-08-20T08:54:45;4.72;;;0.82;;
56307;SDS011;42217;50.422;7.210;2022-08-20T08:57:16;1.33;;;0.60;;
56307;SDS011;42217;50.422;7.210;2022-08-20T09:00:04;1.80;;;1.38;;
56307;SDS011;42217;50.422;7.210;2022-08-20T09:02:33;9.32;;;0.93;;
56307;SDS011;42217;50.422;7.210;2022-08-20T09:05:03;0.50;;;0.50;;
56307;SDS011;42217;50.422;7.210;2022-08-20T09:07:39;1.45;;;0.57;;
56307;SDS011;42217;50.422;7.210;2022-08-20T09:10:05;1.60;;;0.80;;
56307;SDS011;42217;50.422;7.210;2022-08-20T09:12:32;2.30;;;0.70;;
56307;SDS011;42217;50.422;7.210;2022-08-20T09:14:58;3.97;;;0.88;;
56307;SDS011;42217;50.422;7.210;2022-08-20T09:17:23;1.10;;;0.57;;
56307;SDS011;42217;50.422;7.210;2022-08-20T09:19:49;0.82;;;0.60;;
56307;SDS011;42217;50.422;7.210;2022-08-20T09:22:17;0.75;;;0.55;;
56307;SDS011;42217;50.422;7.210;2022-08-20T09:24:45;0.43;;;0.40;;
56307;SDS011;42217;50.422;7.210;2022-08-20T09:27:11;0.90;;;0.60;;
56307;SDS011;42217;50.422;7.210;2022-08-20T09:29:37;0.43;;;0.40;;
56307;SDS011;42217;50.422;7.210;2022-08-20T09:34:33;2.78;;;1.08;;
56307;SDS011;42217;50.422;7.210;2022-08-20T09:37:00;0.70;;;0.40;;
56307;SDS011;42217;50.422;7.210;2022-08-20T09:39:26;0.85;;;0.50;;
56307;SDS011;42217;50.422;7.210;2022-08-20T09:41:52;4.40;;;0.50;;
56307;SDS011;42217;50.422;7.210;2022-08-20T09:44:17;0.50;;;0.50;;
56307;SDS011;42217;50.422;7.210;2022-08-20T09:46:43;1.20;;;0.52;;
56307;SDS011;42217;50.422;7.210;2022-08-20T09:49:08;0.65;;;0.60;;
56307;SDS011;42217;50.422;7.210;2022-08-20T09:51:34;1.02;;;0.63;;
56307;SDS011;42217;50.422;7.210;2022-08-20T09:54:00;5.30;;;0.52;;
56307;SDS011;42217;50.422;7.210;2022-08-20T09:56:26;0.40;;;0.20;;
56307;SDS011;42217;50.422;7.210;2022-08-20T09:58:57;2.15;;;0.60;;
56307;SDS011;42217;50.422;7.210;2022-08-20T10:01:23;1.02;;;0.50;;
56307;SDS011;42217;50.422;7.210;2022-08-20T10:03:49;2.95;;;0.43;;
56307;SDS011;42217;50.422;7.210;2022-08-20T10:06:16;0.57;;;0.30;;
56307;SDS011;42217;50.422;7.210;2022-08-20T10:08:44;1.38;;;0.52;;
56307;SDS011;42217;50.422;7.210;2022-08-20T10:11:10;1.38;;;0.35;;
56307;SDS011;42217;50.422;7.210;2022-08-20T10:13:36;0.75;;;0.28;;
56307;SDS011;42217;50.422;7.210;2022-08-20T10:16:03;0.68;;;0.60;;
56307;SDS011;42217;50.422;7.210;2022-08-20T10:18:29;0.25;;;0.25;;
56307;SDS011;42217;50.422;7.210;2022-08-20T10:20:56;0.45;;;0.40;;
56307;SDS011;42217;50.422;7.210;2022-08-20T10:23:22;1.05;;;0.38;;
56307;SDS011;42217;50.422;7.210;2022-08-20T10:25:48;1.02;;;0.40;;
56307;SDS011;42217;50.422;7.210;2022-08-20T10:28:13;0.65;;;0.40;;
56307;SDS011;42217;50.422;7.210;2022-08-20T10:30:39;0.52;;;0.43;;
56307;SDS011;42217;50.422;7.210;2022-08-20T10:33:05;0.45;;;0.40;;
56307;SDS011;42217;50.422;7.210;2022-08-20T10:35:31;1.17;;;0.40;;
56307;SDS011;42217;50.422;7.210;2022-08-20T10:37:56;1.45;;;0.50;;
56307;SDS011;42217;50.422;7.210;2022-08-20T10:40:22;0.77;;;0.38;;
56307;SDS011;42217;50.422;7.210;2022-08-20T10:42:48;0.75;;;0.43;;
56307;SDS011;42217;50.422;7.210;2022-08-20T10:45:15;0.82;;;0.25;;
56307;SDS011;42217;50.422;7.210;2022-08-20T10:47:42;1.33;;;0.38;;
56307;SDS011;42217;50.422;7.210;2022-08-20T10:50:10;0.75;;;0.32;;
56307;SDS011;42217;50.422;7.210;2022-08-20T10:52:37;0.43;;;0.40;;
56307;SDS011;42217;50.422;7.210;2022-08-20T10:55:03;1.30;;;0.55;;
56307;SDS011;42217;50.422;7.210;2022-08-20T10:57:30;0.30;;;0.20;;
56307;SDS011;42217;50.422;7.210;2022-08-20T10:59:58;1.75;;;0.57;;
56307;SDS011;42217;50.422;7.210;2022-08-20T11:02:24;1.88;;;0.50;;
56307;SDS011;42217;50.422;7.210;2022-08-20T11:04:51;0.95;;;0.40;;
56307;SDS011;42217;50.422;7.210;2022-08-20T11:09:50;1.42;;;0.60;;
56307;SDS011;42217;50.422;7.210;2022-08-20T11:12:17;1.70;;;0.60;;
56307;SDS011;42217;50.422;7.210;2022-08-20T11:14:44;1.08;;;0.60;;
56307;SDS011;42217;50.422;7.210;2022-08-20T11:17:10;0.70;;;0.60;;
56307;SDS011;42217;50.422;7.210;2022-08-20T11:19:40;2.28;;;0.70;;
56307;SDS011;42217;50.422;7.210;2022-08-20T11:22:07;2.20;;;0.73;;
56307;SDS011;42217;50.422;7.210;2022-08-20T11:24:33;1.60;;;0.75;;
56307;SDS011;42217;50.422;7.210;2022-08-20T11:27:00;0.68;;;0.60;;
56307;SDS011;42217;50.422;7.210;2022-08-20T11:29:26;1.67;;;0.80;;
56307;SDS011;42217;50.422;7.210;2022-08-20T11:31:52;2.97;;;0.60;;
56307;SDS011;42217;50.422;7.210;2022-08-20T11:34:17;1.70;;;1.10;;
56307;SDS011;42217;50.422;7.210;2022-08-20T11:36:43;1.60;;;1.00;;
56307;SDS011;42217;50.422;7.210;2022-08-20T11:39:10;2.03;;;1.10;;
56307;SDS011;42217;50.422;7.210;2022-08-20T11:41:36;5.20;;;1.48;;
56307;SDS011;42217;50.422;7.210;2022-08-20T11:44:02;3.45;;;1.00;;
56307;SDS011;42217;50.422;7.210;2022-08-20T11:46:27;3.20;;;1.40;;
56307;SDS011;42217;50.422;7.210;2022-08-20T11:48:53;1.90;;;0.98;;
56307;SDS011;42217;50.422;7.210;2022-08-20T11:51:19;4.13;;;1.15;;
56307;SDS011;42217;50.422;7.210;2022-08-20T11:53:44;1.00;;;0.88;;
56307;SDS011;42217;50.422;7.210;2022-08-20T11:56:10;2.63;;;1.10;;
56307;SDS011;42217;50.422;7.210;2022-08-20T11:58:37;1.85;;;1.17;;
56307;SDS011;42217;50.422;7.210;2022-08-20T12:01:03;6.97;;;1.20;;
56307;SDS011;42217;50.422;7.210;2022-08-20T12:03:28;2.60;;;1.65;;
56307;SDS011;42217;50.422;7.210;2022-08-20T12:05:55;1.92;;;1.45;;
56307;SDS011;42217;50.422;7.210;2022-08-20T12:08:21;5.97;;;2.17;;
56307;SDS011;42217;50.422;7.210;2022-08-20T12:10:47;7.60;;;2.45;;
56307;SDS011;42217;50.422;7.210;2022-08-20T12:13:13;3.47;;;2.20;;
56307;SDS011;42217;50.422;7.210;2022-08-20T12:15:39;4.75;;;2.03;;
56307;SDS011;42217;50.422;7.210;2022-08-20T12:18:08;1.65;;;1.23;;
56307;SDS011;42217;50.422;7.210;2022-08-20T12:20:34;9.18;;;1.77;;
56307;SDS011;42217;50.422;7.210;2022-08-20T12:23:02;2.55;;;1.40;;
56307;SDS011;42217;50.422;7.210;2022-08-20T12:25:28;3.00;;;1.92;;
56307;SDS011;42217;50.422;7.210;2022-08-20T12:27:54;5.78;;;3.00;;
56307;SDS011;42217;50.422;7.210;2022-08-20T12:30:21;4.63;;;1.50;;
56307;SDS011;42217;50.422;7.210;2022-08-20T12:32:48;4.80;;;1.70;;
56307;SDS011;42217;50.422;7.210;2022-08-20T12:35:14;3.78;;;1.60;;
56307;SDS011;42217;50.422;7.210;2022-08-20T12:37:41;3.28;;;1.65;;
56307;SDS011;42217;50.422;7.210;2022-08-20T12:40:12;6.18;;;1.55;;
56307;SDS011;42217;50.422;7.210;2022-08-20T12:42:40;12.30;;;1.95;;
56307;SDS011;42217;50.422;7.210;2022-08-20T12:45:06;7.22;;;2.10;;
56307;SDS011;42217;50.422;7.210;2022-08-20T12:47:34;9.85;;;2.20;;
56307;SDS011;42217;50.422;7.210;2022-08-20T12:50:04;4.72;;;1.52;;
56307;SDS011;42217;50.422;7.210;2022-08-20T12:52:38;6.82;;;2.20;;
56307;SDS011;42217;50.422;7.210;2022-08-20T12:55:05;5.20;;;1.90;;
56307;SDS011;42217;50.422;7.210;2022-08-20T12:57:33;4.20;;;1.98;;
56307;SDS011;42217;50.422;7.210;2022-08-20T13:00:05;7.25;;;1.58;;
56307;SDS011;42217;50.422;7.210;2022-08-20T13:02:33;5.63;;;1.55;;
56307;SDS011;42217;50.422;7.210;2022-08-20T13:04:59;6.82;;;1.92;;
56307;SDS011;42217;50.422;7.210;2022-08-20T13:07:25;8.57;;;2.85;;
56307;SDS011;42217;50.422;7.210;2022-08-20T13:09:51;6.97;;;2.38;;
56307;SDS011;42217;50.422;7.210;2022-08-20T13:12:17;4.63;;;2.10;;
56307;SDS011;42217;50.422;7.210;2022-08-20T13:14:42;11.70;;;3.30;;
56307;SDS011;42217;50.422;7.210;2022-08-20T13:17:09;4.47;;;2.17;;
56307;SDS011;42217;50.422;7.210;2022-08-20T13:19:35;6.18;;;2.53;;
56307;SDS011;42217;50.422;7.210;2022-08-20T13:22:02;5.85;;;2.38;;
56307;SDS011;42217;50.422;7.210;2022-08-20T13:24:29;8.88;;;2.80;;
56307;SDS011;42217;50.422;7.210;2022-08-20T13:27:02;5.45;;;1.98;;
56307;SDS011;42217;50.422;7.210;2022-08-20T13:29:29;7.43;;;2.70;;
56307;SDS011;42217;50.422;7.210;2022-08-20T13:31:55;4.82;;;2.38;;
56307;SDS011;42217;50.422;7.210;2022-08-20T13:34:20;7.00;;;3.10;;
56307;SDS011;42217;50.422;7.210;2022-08-20T13:36:46;8.85;;;3.20;;
56307;SDS011;42217;50.422;7.210;2022-08-20T13:39:12;6.38;;;2.45;;
56307;SDS011;42217;50.422;7.210;2022-08-20T13:41:38;3.78;;;2.50;;
56307;SDS011;42217;50.422;7.210;2022-08-20T13:44:03;6.20;;;2.60;;
56307;SDS011;42217;50.422;7.210;2022-08-20T13:46:29;8.50;;;3.40;;
56307;SDS011;42217;50.422;7.210;2022-08-20T13:48:55;11.15;;;2.75;;
56307;SDS011;42217;50.422;7.210;2022-08-20T13:51:21;7.43;;;3.15;;
56307;SDS011;42217;50.422;7.210;2022-08-20T13:53:46;8.45;;;3.05;;
56307;SDS011;42217;50.422;7.210;2022-08-20T13:56:12;9.68;;;3.70;;
56307;SDS011;42217;50.422;7.210;2022-08-20T13:58:38;8.20;;;3.25;;
56307;SDS011;42217;50.422;7.210;2022-08-20T14:01:04;10.95;;;3.45;;
56307;SDS011;42217;50.422;7.210;2022-08-20T14:03:29;10.25;;;2.53;;
56307;SDS011;42217;50.422;7.210;2022-08-20T14:05:56;8.23;;;2.92;;
56307;SDS011;42217;50.422;7.210;2022-08-20T14:08:23;8.32;;;2.75;;
56307;SDS011;42217;50.422;7.210;2022-08-20T14:10:49;12.63;;;3.15;;
56307;SDS011;42217;50.422;7.210;2022-08-20T14:13:16;12.23;;;3.30;;
56307;SDS011;42217;50.422;7.210;2022-08-20T14:15:43;7.30;;;2.80;;
56307;SDS011;42217;50.422;7.210;2022-08-20T14:18:09;8.82;;;2.63;;
56307;SDS011;42217;50.422;7.210;2022-08-20T14:20:37;9.52;;;3.30;;
56307;SDS011;42217;50.422;7.210;2022-08-20T14:23:02;11.32;;;3.85;;
56307;SDS011;42217;50.422;7.210;2022-08-20T14:25:29;9.82;;;2.47;;
56307;SDS011;42217;50.422;7.210;2022-08-20T14:27:55;11.63;;;3.35;;
56307;SDS011;42217;50.422;7.210;2022-08-20T14:30:23;14.00;;;3.45;;
56307;SDS011;42217;50.422;7.210;2022-08-20T14:32:51;14.18;;;3.03;;
56307;SDS011;42217;50.422;7.210;2022-08-20T14:35:17;11.93;;;2.78;;
56307;SDS011;42217;50.422;7.210;2022-08-20T14:37:47;9.07;;;3.13;;
56307;SDS011;42217;50.422;7.210;2022-08-20T14:40:21;9.27;;;2.78;;
56307;SDS011;42217;50.422;7.210;2022-08-20T14:42:47;11.23;;;2.78;;
56307;SDS011;42217;50.422;7.210;2022-08-20T14:45:14;7.72;;;2.50;;
56307;SDS011;42217;50.422;7.210;2022-08-20T14:47:41;11.45;;;3.28;;
56307;SDS011;42217;50.422;7.210;2022-08-20T14:50:13;10.18;;;2.50;;
56307;SDS011;42217;50.422;7.210;2022-08-20T14:52:41;11.82;;;3.05;;
56307;SDS011;42217;50.422;7.210;2022-08-20T14:55:09;14.55;;;4.72;;
56307;SDS011;42217;50.422;7.210;2022-08-20T14:57:38;8.10;;;3.55;;
56307;SDS011;42217;50.422;7.210;2022-08-20T15:00:10;11.85;;;3.17;;
56307;SDS011;42217;50.422;7.210;2022-08-20T15:02:38;10.05;;;3.28;;
56307;SDS011;42217;50.422;7.210;2022-08-20T15:05:04;8.70;;;3.08;;
56307;SDS011;42217;50.422;7.210;2022-08-20T15:07:33;13.55;;;3.25;;
56307;SDS011;42217;50.422;7.210;2022-08-20T15:12:30;11.73;;;2.70;;